Time;durP1;ratioP1;P1;durP2;ratioP2;P2;SDS_P1;SDS_P2;PMS_P1;PMS_P2;Temp;Humidity;BMP_temperature;BMP_pressure;BME280_temperature;BME280_humidity;BME280_pressure;Samples;Min_cycle;Max_cycle;Signal;HPM_P1;HPM_P2
2022/09/01 00:00:13;;;;;;;;;;;;;;;18.08;56.04;101517.94;5088993;28;20073;-79
2022/09/01 00:02:39;;;;;;;;;;;;;;;18.06;55.31;101517.16;5091939;28;19935;-80
2022/09/01 00:05:06;;;;;;;;;;;;;;;18.08;56.29;101515.31;5109353;28;19916;-80
2022/09/01 00:07:34;;;;;;;;;;;;;;;18.03;56.29;101508.53;5091342;28;19916;-79
2022/09/01 00:09:59;;;;;;;;;;;;;;;18.01;57.23;101515.59;5104783;28;19970;-80
2022/09/01 00:12:25;;;;;;;;;;;;;;;17.95;56.54;101511.44;5091170;28;19944;-79
2022/09/01 00:14:51;;;;;;;;;;;;;;;17.95;57.13;101521.09;5091252;28;19912;-79
2022/09/01 00:17:16;;;;;;;;;;;;;;;17.93;57.28;101521.16;5090605;28;20389;-80
2022/09/01 00:19:41;;;;;;;;;;;;;;;17.95;57.16;101523.72;5090432;28;19916;-80
2022/09/01 00:22:07;;;;;;;;;;;;;;;17.85;56.49;101530.28;5090034;28;19928;-80
2022/09/01 00:24:32;;;;;;;;;;;;;;;17.83;56.15;101524.22;5089750;28;19920;-79
2022/09/01 00:26:57;;;;;;;;;;;;;;;17.77;56.36;101533.19;5090411;28;19912;-79
2022/09/01 00:29:23;;;;;;;;;;;;;;;17.77;56.18;101535.81;5090942;28;19934;-79
2022/09/01 00:31:49;;;;;;;;;;;;;;;17.66;57.45;101532.75;5100850;28;19915;-79
2022/09/01 00:34:14;;;;;;;;;;;;;;;17.69;57.41;101531.75;5092160;28;19942;-79
2022/09/01 00:36:39;;;;;;;;;;;;;;;17.71;57.25;101530.78;5090273;28;20270;-80
2022/09/01 00:39:06;;;;;;;;;;;;;;;17.70;57.39;101536.13;5088279;28;19997;-79
2022/09/01 00:41:33;;;;;;;;;;;;;;;17.64;57.27;101526.69;5082202;28;19913;-79
2022/09/01 00:43:59;;;;;;;;;;;;;;;17.65;57.64;101533.66;5085567;28;19916;-79
2022/09/01 00:46:31;;;;;;;;;;;;;;;17.58;57.40;101535.66;5090254;28;20026;-80
2022/09/01 00:48:59;;;;;;;;;;;;;;;17.60;57.27;101530.34;5072884;28;19920;-79
2022/09/01 00:51:26;;;;;;;;;;;;;;;17.59;57.00;101523.38;5091469;28;19922;-79
2022/09/01 00:53:54;;;;;;;;;;;;;;;17.64;56.95;101529.34;5096045;28;19920;-79
2022/09/01 00:56:20;;;;;;;;;;;;;;;17.60;57.01;101533.84;5098036;28;19908;-79
2022/09/01 00:58:45;;;;;;;;;;;;;;;17.62;56.87;101525.06;5090143;28;19920;-79
2022/09/01 01:01:11;;;;;;;;;;;;;;;17.70;56.81;101518.59;5089755;28;20463;-79
2022/09/01 01:03:41;;;;;;;;;;;;;;;17.71;56.30;101520.28;5089721;28;20014;-79
2022/09/01 01:06:07;;;;;;;;;;;;;;;17.70;56.11;101518.59;5094265;28;19912;-79
2022/09/01 01:08:35;;;;;;;;;;;;;;;17.74;55.45;101520.16;5101250;28;19916;-79
2022/09/01 01:11:16;;;;;;;;;;;;;;;17.79;55.82;101517.38;5099181;28;19920;-79
2022/09/01 01:13:50;;;;;;;;;;;;;;;17.73;55.45;101520.25;5084810;28;19916;-80
2022/09/01 01:16:16;;;;;;;;;;;;;;;17.76;55.35;101520.97;5106566;28;19916;-79
2022/09/01 01:18:41;;;;;;;;;;;;;;;17.79;55.55;101515.59;5067086;28;19932;-79
2022/09/01 01:24:00;;;;;;;;;;;;;;;17.78;56.28;101521.75;5094098;28;19969;-79
2022/09/01 01:26:27;;;;;;;;;;;;;;;17.76;56.39;101528.88;5094296;28;19912;-80
2022/09/01 01:28:54;;;;;;;;;;;;;;;17.77;56.68;101529.72;5094053;28;19959;-80
2022/09/01 01:31:21;;;;;;;;;;;;;;;17.74;57.11;101525.41;5107220;28;19995;-79
2022/09/01 01:33:50;;;;;;;;;;;;;;;17.71;56.25;101522.91;5107346;28;19986;-80
2022/09/01 01:36:23;;;;;;;;;;;;;;;17.67;56.61;101523.97;5107213;28;19916;-79
2022/09/01 01:38:49;;;;;;;;;;;;;;;17.67;55.98;101526.59;5079292;28;19927;-79
2022/09/01 01:41:18;;;;;;;;;;;;;;;17.62;56.29;101525.88;5083408;28;19916;-80
2022/09/01 01:43:44;;;;;;;;;;;;;;;17.70;56.52;101518.59;5106744;28;19923;-80
2022/09/01 01:46:10;;;;;;;;;;;;;;;17.67;56.77;101523.09;5093552;28;19916;-80
2022/09/01 01:48:38;;;;;;;;;;;;;;;17.63;56.64;101521.50;5095402;28;19923;-79
2022/09/01 01:51:04;;;;;;;;;;;;;;;17.62;56.42;101525.06;5106173;28;19918;-79
2022/09/01 01:53:30;;;;;;;;;;;;;;;17.58;56.68;101527.75;5112506;28;19928;-79
2022/09/01 01:55:57;;;;;;;;;;;;;;;17.61;56.31;101521.56;5113382;28;19965;-79
2022/09/01 01:58:24;;;;;;;;;;;;;;;17.60;56.71;101520.69;5113170;28;19927;-79
2022/09/01 02:00:50;;;;;;;;;;;;;;;17.58;56.50;101522.50;5103330;28;20265;-79
2022/09/01 02:03:18;;;;;;;;;;;;;;;17.50;56.55;101531.59;5098276;28;20383;-79
2022/09/01 02:05:45;;;;;;;;;;;;;;;17.49;56.14;101520.22;5093827;28;19915;-80
2022/09/01 02:08:11;;;;;;;;;;;;;;;17.52;55.70;101528.00;5109374;28;19916;-79
2022/09/01 02:10:44;;;;;;;;;;;;;;;17.55;55.52;101524.38;5103275;28;19927;-79
2022/09/01 02:13:15;;;;;;;;;;;;;;;17.58;55.96;101522.50;5107697;28;19920;-79
2022/09/01 02:15:46;;;;;;;;;;;;;;;17.56;56.09;101528.75;5091674;28;19954;-79
2022/09/01 02:18:15;;;;;;;;;;;;;;;17.57;56.13;101526.03;5093221;28;20739;-79
2022/09/01 02:20:40;;;;;;;;;;;;;;;17.56;56.34;101526.94;5094717;28;19919;-79
2022/09/01 02:23:10;;;;;;;;;;;;;;;17.52;56.47;101525.38;5111831;28;19916;-80
2022/09/01 02:25:37;;;;;;;;;;;;;;;17.55;55.56;101527.88;5094715;28;20342;-79
2022/09/01 02:28:04;;;;;;;;;;;;;;;17.55;56.27;101529.66;5112748;28;19919;-79
2022/09/01 02:30:31;;;;;;;;;;;;;;;17.59;55.65;101528.63;5112573;28;20329;-80
2022/09/01 02:32:58;;;;;;;;;;;;;;;17.57;56.00;101533.06;5112149;28;19961;-79
2022/09/01 02:35:27;;;;;;;;;;;;;;;17.56;55.99;101523.50;5104040;28;19912;-79
2022/09/01 02:37:56;;;;;;;;;;;;;;;17.48;56.07;101525.53;5097591;28;19931;-79
2022/09/01 02:40:21;;;;;;;;;;;;;;;17.53;56.66;101528.84;5089355;28;20332;-80
2022/09/01 02:42:51;;;;;;;;;;;;;;;17.52;56.13;101530.63;5112736;28;20323;-79
2022/09/01 02:45:18;;;;;;;;;;;;;;;17.50;56.39;101527.19;5096355;28;19916;-79
2022/09/01 02:47:45;;;;;;;;;;;;;;;17.54;56.73;101530.56;5092869;28;20011;-80
2022/09/01 02:50:18;;;;;;;;;;;;;;;17.54;57.08;101528.78;5098869;28;19931;-79
2022/09/01 02:52:47;;;;;;;;;;;;;;;17.49;56.44;101522.00;5073578;28;19924;-80
2022/09/01 02:55:13;;;;;;;;;;;;;;;17.38;56.67;101532.06;5091774;28;19920;-80
2022/09/01 02:57:38;;;;;;;;;;;;;;;17.41;56.89;101519.63;5074272;28;19920;-79
2022/09/01 03:00:19;;;;;;;;;;;;;;;17.42;57.19;101529.25;5092222;28;19946;-79
2022/09/01 03:02:44;;;;;;;;;;;;;;;17.46;57.58;101524.72;5086629;28;19916;-80
2022/09/01 03:05:10;;;;;;;;;;;;;;;17.42;56.64;101523.13;5075806;28;20008;-80
2022/09/01 03:07:36;;;;;;;;;;;;;;;17.34;57.13;101525.19;5074693;28;20462;-80
2022/09/01 03:10:08;;;;;;;;;;;;;;;17.34;56.83;101523.44;5092123;28;19924;-79
2022/09/01 03:12:34;;;;;;;;;;;;;;;17.34;57.57;101526.06;5091081;28;19977;-80
2022/09/01 03:14:59;;;;;;;;;;;;;;;17.33;56.47;101515.59;5087082;28;20403;-80
2022/09/01 03:17:24;;;;;;;;;;;;;;;17.25;56.76;101520.28;5084704;28;19927;-79
2022/09/01 03:19:50;;;;;;;;;;;;;;;17.24;57.39;101519.41;5073358;28;19954;-80
2022/09/01 03:22:16;;;;;;;;;;;;;;;17.28;56.49;101520.16;5073902;28;20380;-80
2022/09/01 03:24:41;;;;;;;;;;;;;;;17.30;56.72;101516.56;5091422;28;19923;-80
2022/09/01 03:27:07;;;;;;;;;;;;;;;17.24;56.40;101519.41;5090689;28;19924;-79
2022/09/01 03:29:33;;;;;;;;;;;;;;;17.27;56.10;101516.66;5092170;28;19919;-79
2022/09/01 03:31:58;;;;;;;;;;;;;;;17.24;55.59;101518.53;5073504;28;19915;-79
2022/09/01 03:34:25;;;;;;;;;;;;;;;17.17;55.34;101523.19;5090862;28;19950;-80
2022/09/01 03:36:50;;;;;;;;;;;;;;;17.15;54.99;101514.50;5091179;28;19916;-80
2022/09/01 03:39:17;;;;;;;;;;;;;;;17.20;55.61;101515.22;5094408;28;19916;-79
2022/09/01 03:41:43;;;;;;;;;;;;;;;17.19;55.19;101516.09;5085611;28;19972;-79
2022/09/01 03:44:10;;;;;;;;;;;;;;;17.22;55.88;101521.25;5109582;28;20303;-80
2022/09/01 03:46:36;;;;;;;;;;;;;;;17.23;55.89;101519.47;5111686;28;19916;-78
2022/09/01 03:49:04;;;;;;;;;;;;;;;17.18;55.59;101517.00;5110499;28;20445;-77
2022/09/01 03:51:30;;;;;;;;;;;;;;;17.19;55.56;101516.09;5097644;28;19916;-77
2022/09/01 03:53:56;;;;;;;;;;;;;;;17.18;55.40;101516.16;5096477;28;19915;-77
2022/09/01 03:56:26;;;;;;;;;;;;;;;17.16;55.84;101512.72;5098435;28;20594;-77
2022/09/01 03:58:52;;;;;;;;;;;;;;;17.12;55.85;101511.97;5110225;28;20390;-77
2022/09/01 04:01:18;;;;;;;;;;;;;;;17.16;55.94;101510.09;5101962;28;19958;-77
2022/09/01 04:03:47;;;;;;;;;;;;;;;17.13;55.97;101512.84;5097504;28;19972;-77
2022/09/01 04:06:14;;;;;;;;;;;;;;;17.13;56.56;101515.47;5087211;28;19931;-77
2022/09/01 04:08:39;;;;;;;;;;;;;;;17.10;56.35;101512.94;5090802;28;20276;-77
2022/09/01 04:11:12;;;;;;;;;;;;;;;17.00;56.39;101509.78;5090756;28;19920;-77
2022/09/01 04:13:39;;;;;;;;;;;;;;;16.97;56.80;101512.53;5110232;28;20007;-77
2022/09/01 04:16:09;;;;;;;;;;;;;;;16.97;56.63;101517.78;5107466;28;19916;-77
2022/09/01 04:18:34;;;;;;;;;;;;;;;16.96;56.69;101519.56;5090148;28;19947;-77
2022/09/01 04:21:00;;;;;;;;;;;;;;;16.95;57.07;101516.97;5090398;28;19916;-77
2022/09/01 04:23:28;;;;;;;;;;;;;;;16.96;56.74;101516.94;5090854;28;19920;-77
2022/09/01 04:26:13;;;;;;;;;;;;;;;16.95;57.57;101515.22;5103976;28;19969;-77
2022/09/01 04:28:38;;;;;;;;;;;;;;;16.96;57.09;101521.31;5072488;28;20484;-77
2022/09/01 04:31:07;;;;;;;;;;;;;;;16.90;57.94;101518.91;5090432;28;19922;-77
2022/09/01 04:33:38;;;;;;;;;;;;;;;16.96;57.80;101522.19;5090310;28;19932;-77
2022/09/01 04:36:05;;;;;;;;;;;;;;;16.99;57.85;101521.22;5072295;28;20296;-77
2022/09/01 04:38:30;;;;;;;;;;;;;;;16.86;57.81;101515.53;5083099;28;19920;-77
2022/09/01 04:40:56;;;;;;;;;;;;;;;16.94;57.93;101524.00;5095256;28;19915;-77
2022/09/01 04:43:24;;;;;;;;;;;;;;;16.89;58.45;101527.69;5110884;28;19916;-77
2022/09/01 04:45:50;;;;;;;;;;;;;;;16.89;57.79;101527.69;5104449;28;19923;-77
2022/09/01 04:48:17;;;;;;;;;;;;;;;16.92;57.72;101525.81;5091958;28;19969;-77
2022/09/01 04:50:43;;;;;;;;;;;;;;;16.89;57.86;101530.31;5081655;28;19931;-77
2022/09/01 04:53:10;;;;;;;;;;;;;;;16.87;57.44;101532.16;5109335;28;20439;-77
2022/09/01 04:55:42;;;;;;;;;;;;;;;16.82;57.96;101527.03;5103576;28;19942;-77
2022/09/01 04:58:09;;;;;;;;;;;;;;;16.79;57.62;101532.41;5090010;28;19920;-77
2022/09/01 05:00:35;;;;;;;;;;;;;;;16.83;57.66;101534.00;5095151;28;19955;-77
2022/09/01 05:03:03;;;;;;;;;;;;;;;16.79;57.73;101531.56;5091200;28;20017;-77
2022/09/01 05:05:37;;;;;;;;;;;;;;;16.69;58.02;101527.53;5096977;28;19999;-77
2022/09/01 05:08:02;;;;;;;;;;;;;;;16.66;58.15;101527.59;5092116;28;20312;-77
2022/09/01 05:10:28;;;;;;;;;;;;;;;16.65;57.93;101528.50;5108801;28;19920;-77
2022/09/01 05:12:55;;;;;;;;;;;;;;;16.66;58.46;101527.59;5108099;28;20395;-77
2022/09/01 05:15:22;;;;;;;;;;;;;;;16.75;59.28;101527.31;5099111;28;19916;-77
2022/09/01 05:17:48;;;;;;;;;;;;;;;16.69;58.21;101530.16;5089261;28;20017;-77
2022/09/01 05:20:13;;;;;;;;;;;;;;;16.53;58.61;101521.91;5079218;28;20317;-77
2022/09/01 05:22:39;;;;;;;;;;;;;;;16.66;59.23;101525.84;5104562;28;19968;-77
2022/09/01 05:25:14;;;;;;;;;;;;;;;16.69;58.82;101523.16;5109651;28;19916;-77
2022/09/01 05:27:41;;;;;;;;;;;;;;;16.62;59.26;101525.97;5096203;28;20372;-77
2022/09/01 05:30:07;;;;;;;;;;;;;;;16.72;58.09;101530.91;5109829;28;19976;-77
2022/09/01 05:32:36;;;;;;;;;;;;;;;16.75;58.49;101533.44;5110075;28;19920;-77
2022/09/01 05:35:07;;;;;;;;;;;;;;;16.78;58.95;101530.72;5084427;28;19916;-77
2022/09/01 05:37:33;;;;;;;;;;;;;;;16.81;58.44;101533.22;5089185;28;19927;-77
2022/09/01 05:39:58;;;;;;;;;;;;;;;16.76;59.23;101535.13;5085009;28;20007;-77
2022/09/01 05:42:23;;;;;;;;;;;;;;;16.81;59.04;101540.22;5102017;28;19916;-77
2022/09/01 05:44:49;;;;;;;;;;;;;;;16.80;58.56;101543.75;5100592;28;19941;-77
2022/09/01 05:47:15;;;;;;;;;;;;;;;16.81;58.61;101540.22;5109974;28;20030;-77
2022/09/01 05:49:40;;;;;;;;;;;;;;;16.84;58.00;101538.38;5109932;28;19991;-77
2022/09/01 05:52:08;;;;;;;;;;;;;;;16.81;58.13;101538.47;5113125;28;20380;-77
2022/09/01 05:54:34;;;;;;;;;;;;;;;16.85;58.48;101549.69;5112104;28;19926;-77
2022/09/01 05:57:00;;;;;;;;;;;;;;;16.82;58.28;101542.78;5113322;28;19915;-77
2022/09/01 05:59:26;;;;;;;;;;;;;;;16.78;58.55;101542.97;5104168;28;20003;-77
2022/09/01 06:01:52;;;;;;;;;;;;;;;16.78;58.34;101546.44;5094172;28;20007;-77
2022/09/01 06:04:18;;;;;;;;;;;;;;;16.82;58.93;101550.66;5104243;28;20013;-77
2022/09/01 06:06:48;;;;;;;;;;;;;;;16.78;58.70;101549.06;5111716;28;20450;-77
2022/09/01 06:09:16;;;;;;;;;;;;;;;16.84;59.20;101548.88;5112886;28;20288;-77
2022/09/01 06:11:42;;;;;;;;;;;;;;;16.91;58.73;101547.72;5112737;28;19945;-77
2022/09/01 06:14:10;;;;;;;;;;;;;;;16.91;58.43;101555.59;5112807;28;19915;-77
2022/09/01 06:16:36;;;;;;;;;;;;;;;16.91;58.71;101559.97;5107212;28;20270;-77
2022/09/01 06:19:01;;;;;;;;;;;;;;;16.91;58.75;101555.59;5100102;28;19963;-77
2022/09/01 06:21:27;;;;;;;;;;;;;;;16.92;58.35;101553.84;5092858;28;20009;-77
2022/09/01 06:23:54;;;;;;;;;;;;;;;16.89;58.09;101554.78;5092676;28;19923;-77
2022/09/01 06:26:22;;;;;;;;;;;;;;;16.96;58.92;101564.19;5093119;28;19948;-77
2022/09/01 06:28:53;;;;;;;;;;;;;;;16.97;59.01;101554.53;5092833;28;19916;-77
2022/09/01 06:31:22;;;;;;;;;;;;;;;17.02;58.73;101563.97;5092619;28;19923;-77
2022/09/01 06:33:50;;;;;;;;;;;;;;;17.03;58.33;101562.19;5092253;28;19916;-77
2022/09/01 06:36:16;;;;;;;;;;;;;;;17.03;58.97;101567.44;5092615;28;20011;-77
2022/09/01 06:38:42;;;;;;;;;;;;;;;17.01;58.28;101557.00;5092876;28;19949;-77
2022/09/01 06:41:11;;;;;;;;;;;;;;;16.98;57.67;101558.88;5091837;28;19916;-77
2022/09/01 06:43:39;;;;;;;;;;;;;;;17.02;56.35;101563.13;5093298;28;19943;-77
2022/09/01 06:46:05;;;;;;;;;;;;;;;17.08;56.15;101563.72;5093687;28;19922;-77
2022/09/01 06:48:30;;;;;;;;;;;;;;;17.09;56.70;101561.97;5091168;28;20379;-77
2022/09/01 06:51:01;;;;;;;;;;;;;;;17.13;56.81;101557.47;5091729;28;19912;-77
2022/09/01 06:53:29;;;;;;;;;;;;;;;17.18;57.22;101563.41;5093027;28;19990;-77
2022/09/01 06:55:55;;;;;;;;;;;;;;;17.18;56.52;101566.03;5073498;28;19920;-77
2022/09/01 06:58:20;;;;;;;;;;;;;;;17.14;55.75;101560.06;5091907;28;19993;-77
2022/09/01 07:00:47;;;;;;;;;;;;;;;17.16;56.99;101566.09;5091557;28;19947;-77
2022/09/01 07:03:13;;;;;;;;;;;;;;;17.26;55.89;101572.75;5091380;28;19927;-77
2022/09/01 07:05:43;;;;;;;;;;;;;;;17.23;55.90;101564.13;5092404;28;19912;-77
2022/09/01 07:08:13;;;;;;;;;;;;;;;17.25;55.02;101573.66;5105622;28;19947;-77
2022/09/01 07:10:40;;;;;;;;;;;;;;;17.26;54.78;101567.50;5092460;28;19920;-78
2022/09/01 07:13:07;;;;;;;;;;;;;;;17.24;54.23;101566.69;5105160;28;19923;-78
2022/09/01 07:15:37;;;;;;;;;;;;;;;17.22;55.28;101571.13;5084680;28;19920;-78
2022/09/01 07:18:02;;;;;;;;;;;;;;;17.27;55.54;101569.19;5091351;28;20665;-78
2022/09/01 07:20:28;;;;;;;;;;;;;;;17.26;55.34;101569.25;5098320;28;20006;-78
2022/09/01 07:22:54;;;;;;;;;;;;;;;17.29;55.04;101566.53;5083613;28;19916;-78
2022/09/01 07:25:20;;;;;;;;;;;;;;;17.19;54.94;101571.25;5094037;28;20414;-78
2022/09/01 07:27:49;;;;;;;;;;;;;;;17.28;55.41;101567.44;5107226;28;19915;-76
2022/09/01 07:30:16;;;;;;;;;;;;;;;17.31;55.03;101564.69;5110448;28;19951;-77
2022/09/01 07:32:45;;;;;;;;;;;;;;;17.34;55.81;101561.94;5098677;28;19911;-77
2022/09/01 07:35:14;;;;;;;;;;;;;;;17.38;55.79;101560.94;5094661;28;19923;-76
2022/09/01 07:37:40;;;;;;;;;;;;;;;17.33;55.74;101557.59;5097948;28;19919;-77
2022/09/01 07:40:06;;;;;;;;;;;;;;;17.40;54.33;101557.34;5101354;28;19916;-77
2022/09/01 07:42:32;;;;;;;;;;;;;;;17.37;54.50;101559.22;5104536;28;19969;-77
2022/09/01 07:44:58;;;;;;;;;;;;;;;17.43;53.72;101562.47;5101754;28;20408;-77
2022/09/01 07:47:24;;;;;;;;;;;;;;;17.42;54.39;101560.75;5095278;28;20330;-77
2022/09/01 07:49:49;;;;;;;;;;;;;;;17.46;53.08;101559.75;5094377;28;19920;-77
2022/09/01 07:52:14;;;;;;;;;;;;;;;17.52;53.83;101556.03;5091985;28;20369;-77
2022/09/01 07:54:41;;;;;;;;;;;;;;;17.58;54.29;101558.44;5092434;28;19916;-78
2022/09/01 07:57:06;;;;;;;;;;;;;;;17.58;53.67;101555.81;5098518;28;19927;-78
2022/09/01 07:59:34;;;;;;;;;;;;;;;17.57;54.01;101560.19;5100773;28;19912;-78
2022/09/01 08:02:04;;;;;;;;;;;;;;;17.62;52.59;101552.16;5097865;28;20149;-78
2022/09/01 08:04:30;;;;;;;;;;;;;;;17.64;52.85;101554.75;5107259;28;20013;-78
2022/09/01 08:06:56;;;;;;;;;;;;;;;17.72;54.33;101556.16;5103376;28;19961;-78
2022/09/01 08:09:21;;;;;;;;;;;;;;;17.71;53.16;101557.06;5107793;28;19920;-78
2022/09/01 08:11:47;;;;;;;;;;;;;;;17.68;51.81;101551.94;5110383;28;19946;-77
2022/09/01 08:14:12;;;;;;;;;;;;;;;17.71;51.80;101556.25;5110796;28;19920;-78
2022/09/01 08:16:38;;;;;;;;;;;;;;;17.71;51.47;101554.44;5100317;28;19916;-78
2022/09/01 08:19:03;;;;;;;;;;;;;;;17.75;51.27;101549.94;5097012;28;19924;-78
2022/09/01 08:21:28;;;;;;;;;;;;;;;17.77;51.26;101556.84;5090409;28;19916;-78
2022/09/01 08:23:54;;;;;;;;;;;;;;;17.80;51.72;101563.78;5090573;28;19912;-78
2022/09/01 08:26:21;;;;;;;;;;;;;;;17.81;51.57;101560.22;5090909;28;20285;-78
2022/09/01 08:28:47;;;;;;;;;;;;;;;17.83;52.37;101561.03;5072222;28;19916;-78
2022/09/01 08:31:14;;;;;;;;;;;;;;;17.83;52.43;101556.59;5072175;28;19927;-78
2022/09/01 08:33:41;;;;;;;;;;;;;;;17.87;52.10;101558.22;5090093;28;20083;-78
2022/09/01 08:36:07;;;;;;;;;;;;;;;17.91;52.13;101557.19;5090304;28;20289;-78
2022/09/01 08:38:33;;;;;;;;;;;;;;;17.93;54.34;101557.97;5090738;28;19920;-78
2022/09/01 08:40:59;;;;;;;;;;;;;;;17.97;53.19;101558.72;5089854;28;20007;-78
2022/09/01 08:43:33;;;;;;;;;;;;;;;17.97;52.12;101556.09;5090187;28;19916;-78
2022/09/01 08:46:05;;;;;;;;;;;;;;;17.96;51.29;101542.06;5077240;28;19927;-78
2022/09/01 08:48:42;;;;;;;;;;;;;;;18.01;56.04;101560.28;5069797;28;19951;-78
2022/09/01 08:51:26;;;;;;;;;;;;;;;18.04;53.49;101552.28;5089917;28;19932;-78
2022/09/01 08:54:12;;;;;;;;;;;;;;;18.03;51.75;101545.31;5102110;28;19939;-78
2022/09/01 08:56:38;;;;;;;;;;;;;;;18.04;52.29;101552.28;5109838;28;19912;-78
2022/09/01 08:59:05;;;;;;;;;;;;;;;18.06;51.70;101548.69;5100536;28;20558;-78
2022/09/01 09:01:48;;;;;;;;;;;;;;;18.09;51.32;101543.28;5101396;28;20372;-78
2022/09/01 09:04:26;;;;;;;;;;;;;;;18.10;53.01;101547.63;5110034;28;19992;-78
2022/09/01 09:06:54;;;;;;;;;;;;;;;18.09;51.27;101542.47;5103085;28;19917;-78
2022/09/01 09:09:20;;;;;;;;;;;;;;;18.11;51.19;101540.63;5102264;28;19923;-78
2022/09/01 09:11:45;;;;;;;;;;;;;;;18.16;51.61;101542.13;5110318;28;19916;-78
2022/09/01 09:14:26;;;;;;;;;;;;;;;18.16;51.40;101542.13;5096179;28;19916;-78
2022/09/01 09:16:55;;;;;;;;;;;;;;;18.18;51.63;101533.34;5099199;28;20406;-78
2022/09/01 09:19:27;;;;;;;;;;;;;;;18.26;60.33;101540.00;5065042;28;20300;-78
2022/09/01 09:21:53;;;;;;;;;;;;;;;18.26;58.35;101537.38;5089759;28;19947;-77
2022/09/01 09:24:49;;;;;;;;;;;;;;;18.24;54.19;101533.09;5089522;28;19916;-77
2022/09/01 09:27:19;;;;;;;;;;;;;;;18.22;51.59;101524.38;5093976;28;19916;-77
2022/09/01 09:29:45;;;;;;;;;;;;;;;18.26;51.49;101518.09;5081134;28;19920;-77
2022/09/01 09:32:10;;;;;;;;;;;;;;;18.29;50.84;101524.09;5094294;28;19956;-77
2022/09/01 09:34:37;;;;;;;;;;;;;;;18.31;54.59;101522.25;5093504;28;19947;-77
2022/09/01 09:37:15;;;;;;;;;;;;;;;18.33;54.82;101519.56;5093576;28;19927;-77
2022/09/01 09:39:41;;;;;;;;;;;;;;;18.33;55.78;101522.19;5093081;28;19951;-77
2022/09/01 09:42:09;;;;;;;;;;;;;;;18.37;51.68;101510.63;5093804;28;20397;-78
2022/09/01 09:44:40;;;;;;;;;;;;;;;18.38;53.28;101509.72;5076388;28;20315;-78
2022/09/01 09:47:05;;;;;;;;;;;;;;;18.40;60.56;101518.38;5090837;28;19947;-78
2022/09/01 09:49:32;;;;;;;;;;;;;;;18.40;52.79;101503.47;5093853;28;20389;-78
2022/09/01 09:52:07;;;;;;;;;;;;;;;18.43;60.22;101507.72;5093978;28;20380;-78
2022/09/01 09:54:34;;;;;;;;;;;;;;;18.41;56.77;101496.44;5093331;28;19922;-78
2022/09/01 09:57:16;;;;;;;;;;;;;;;18.44;59.29;101504.19;5093551;28;19916;-78
2022/09/01 09:59:44;;;;;;;;;;;;;;;18.45;60.47;101504.16;5093926;28;19912;-78
2022/09/01 10:02:25;;;;;;;;;;;;;;;18.48;55.89;101490.84;5097742;28;19992;-78
2022/09/01 10:04:51;;;;;;;;;;;;;;;18.54;59.07;101495.03;5093147;28;20452;-78
2022/09/01 10:07:30;;;;;;;;;;;;;;;18.50;58.32;101489.03;5093320;28;19951;-78
2022/09/01 10:09:59;;;;;;;;;;;;;;;18.52;51.92;101481.06;5093227;28;20300;-78
2022/09/01 10:12:25;;;;;;;;;;;;;;;18.52;52.90;101478.44;5074711;28;19916;-78
2022/09/01 10:14:53;;;;;;;;;;;;;;;18.54;50.26;101471.34;5092929;28;19965;-78
2022/09/01 10:17:27;;;;;;;;;;;;;;;18.58;50.14;101475.53;5090352;28;20431;-78
2022/09/01 10:20:01;;;;;;;;;;;;;;;18.63;49.43;101469.16;5091266;28;19916;-78
2022/09/01 10:22:27;;;;;;;;;;;;;;;18.66;52.89;101468.16;5092940;28;19942;-78
2022/09/01 10:24:52;;;;;;;;;;;;;;;18.64;51.77;101472.66;5092712;28;19949;-78
2022/09/01 10:27:20;;;;;;;;;;;;;;;18.61;59.08;101470.16;5093249;28;20293;-78
2022/09/01 10:30:01;;;;;;;;;;;;;;;18.65;50.19;101459.44;5075007;28;19912;-78
2022/09/01 10:32:32;;;;;;;;;;;;;;;18.65;59.54;101469.97;5092704;28;19916;-78
2022/09/01 10:34:58;;;;;;;;;;;;;;;18.69;49.96;101466.25;5091954;28;20007;-78
2022/09/01 10:37:24;;;;;;;;;;;;;;;18.72;49.68;101454.75;5091920;28;20024;-78
2022/09/01 10:40:16;;;;;;;;;;;;;;;18.74;57.95;101459.94;5082624;28;19924;-78
2022/09/01 10:42:42;;;;;;;;;;;;;;;18.73;53.52;101456.47;5058503;28;19920;-78
2022/09/01 10:45:25;;;;;;;;;;;;;;;18.67;54.49;101457.59;5092118;28;19924;-78
2022/09/01 10:47:51;;;;;;;;;;;;;;;18.77;48.83;101455.41;5081054;28;19912;-78
2022/09/01 10:50:22;;;;;;;;;;;;;;;18.78;50.40;101448.38;5076168;28;19999;-78
2022/09/01 10:52:47;;;;;;;;;;;;;;;18.70;51.31;101448.69;5102809;28;19923;-78
2022/09/01 10:55:18;;;;;;;;;;;;;;;18.75;50.67;101451.16;5092507;28;19916;-78
2022/09/01 10:57:49;;;;;;;;;;;;;;;18.66;59.37;101447.13;5092093;28;19960;-78
2022/09/01 11:00:18;;;;;;;;;;;;;;;18.74;51.76;101438.91;5094896;28;19955;-78
2022/09/01 11:03:03;;;;;;;;;;;;;;;18.65;59.59;101446.28;5094121;28;20006;-77
2022/09/01 11:05:49;;;;;;;;;;;;;;;18.76;50.53;101437.03;5102113;28;20011;-78
2022/09/01 11:08:26;;;;;;;;;;;;;;;18.89;50.58;101439.09;5107821;28;20026;-78
2022/09/01 11:10:54;;;;;;;;;;;;;;;18.93;54.10;101448.53;5102874;28;19959;-78
2022/09/01 11:13:23;;;;;;;;;;;;;;;18.87;51.90;101443.53;5110714;28;19947;-78
2022/09/01 11:15:49;;;;;;;;;;;;;;;18.89;50.31;101436.44;5100088;28;20384;-78
2022/09/01 11:18:17;;;;;;;;;;;;;;;18.90;50.43;101442.53;5097571;28;19926;-77
2022/09/01 11:20:44;;;;;;;;;;;;;;;18.80;58.85;101447.38;5099280;28;19916;-77
2022/09/01 11:23:10;;;;;;;;;;;;;;;18.73;61.37;101440.66;5110536;28;19916;-78
2022/09/01 11:25:42;;;;;;;;;;;;;;;18.84;52.05;101432.31;5112068;28;19916;-78
2022/09/01 11:28:08;;;;;;;;;;;;;;;18.97;49.96;101434.31;5105005;28;19916;-78
2022/09/01 11:30:53;;;;;;;;;;;;;;;18.95;50.90;101432.69;5091607;28;19916;-78
2022/09/01 11:33:34;;;;;;;;;;;;;;;18.95;52.86;101435.31;5100344;28;19916;-78
2022/09/01 11:36:06;;;;;;;;;;;;;;;18.97;50.09;101433.44;5096372;28;19916;-77
2022/09/01 11:39:01;;;;;;;;;;;;;;;18.92;49.93;101424.91;5088746;28;19924;-77
2022/09/01 11:41:33;;;;;;;;;;;;;;;18.86;50.73;101423.41;5077079;28;20049;-77
2022/09/01 11:43:59;;;;;;;;;;;;;;;18.80;52.01;101417.56;5091055;28;19916;-77
2022/09/01 11:46:31;;;;;;;;;;;;;;;18.81;51.46;101422.75;5091253;28;19923;-78
2022/09/01 11:49:02;;;;;;;;;;;;;;;18.80;55.88;101431.59;5089895;28;19963;-78
2022/09/01 11:51:36;;;;;;;;;;;;;;;19.06;50.06;101414.59;5091063;28;19923;-78
2022/09/01 11:54:03;;;;;;;;;;;;;;;19.20;48.69;101412.19;5078401;28;19916;-78
2022/09/01 11:56:29;;;;;;;;;;;;;;;19.19;51.05;101413.97;5091390;28;19916;-78
2022/09/01 11:58:54;;;;;;;;;;;;;;;19.07;53.51;101416.31;5091301;28;20258;-78
2022/09/01 12:01:21;;;;;;;;;;;;;;;18.96;59.56;101415.94;5069860;28;20003;-78
2022/09/01 12:03:48;;;;;;;;;;;;;;;19.15;54.22;101411.56;5090647;28;19923;-78
2022/09/01 12:06:24;;;;;;;;;;;;;;;19.27;51.88;101403.09;5090983;28;20008;-77
2022/09/01 12:08:52;;;;;;;;;;;;;;;19.26;52.68;101402.22;5091598;28;19923;-77
2022/09/01 12:11:19;;;;;;;;;;;;;;;19.25;51.07;101399.69;5091045;28;19999;-77
2022/09/01 12:13:59;;;;;;;;;;;;;;;19.07;58.37;101400.53;5072519;28;19916;-77
2022/09/01 12:16:26;;;;;;;;;;;;;;;19.16;56.04;101394.84;5087542;28;19927;-77
2022/09/01 12:18:52;;;;;;;;;;;;;;;19.19;58.33;101394.69;5090448;28;20495;-77
2022/09/01 12:21:28;;;;;;;;;;;;;;;19.35;51.90;101392.19;5090508;28;19924;-77
2022/09/01 12:24:08;;;;;;;;;;;;;;;19.22;59.51;101399.81;5102423;28;19923;-76
2022/09/01 12:26:33;;;;;;;;;;;;;;;19.26;51.59;101386.41;5083685;28;20006;-78
2022/09/01 12:28:58;;;;;;;;;;;;;;;19.15;59.90;101390.47;5097158;28;20406;-78
2022/09/01 12:31:25;;;;;;;;;;;;;;;19.21;59.90;101388.41;5072187;28;20014;-78
2022/09/01 12:33:51;;;;;;;;;;;;;;;19.19;54.14;101382.34;5089342;28;19943;-78
2022/09/01 12:36:29;;;;;;;;;;;;;;;19.35;58.48;101379.88;5096451;28;19998;-78
2022/09/01 12:38:55;;;;;;;;;;;;;;;19.33;54.30;101386.16;5085762;28;19923;-78
2022/09/01 12:41:37;;;;;;;;;;;;;;;19.31;50.88;101377.47;5098489;28;19916;-78
2022/09/01 12:44:21;;;;;;;;;;;;;;;19.38;48.60;101376.25;5092117;28;20432;-78